SWNP weather

CLOSED Novo Paraiso Airport
Novo Paraiso, Roraima, Brazil

Public forecast

Using degrees Celsius for public forecast. Weather courtesy of forecast.io.

METAR (pilot weather report)

Closest report is Atlas Brasil Cantanhede Airport, 97.0 nm (179.7 km) N. Retrieved 2019/03/18 17:00 UTC (16 minutes ago):

SBBV 181700Z 08012KT 9999 FEW035 34/16 Q1012

TAF (pilot weather forecast)

Closest forecast is Atlas Brasil Cantanhede Airport, 97.0 nm (179.7 km) N. Retrieved 2019/03/18 12:00 UTC (5 hours ago):

TAF SBBV 181000Z 1812/1912 09015KT CAVOK TX28/1819Z TN24/1908Z BECMG 1813/1815 06008KT 9999 FEW030 BECMG 1816/1818 09012KT BKN040 BECMG 1821/1823 06008KT CAVOK RMK PFF